sensor_id;sensor_type;location;lat;lon;timestamp;pressure;altitude;pressure_sealevel;temperature;humidity
40117;BME280;25829;50.228;18.936;2022-12-11T00:00:38;97393.28;;;-0.77;82.38
40117;BME280;25829;50.228;18.936;2022-12-11T00:03:39;97396.72;;;-0.76;81.99
40117;BME280;25829;50.228;18.936;2022-12-11T00:06:40;97390.06;;;-0.79;82.24
40117;BME280;25829;50.228;18.936;2022-12-11T00:09:41;97388.28;;;-0.78;81.71
40117;BME280;25829;50.228;18.936;2022-12-11T00:12:42;97375.63;;;-0.98;81.50
40117;BME280;25829;50.228;18.936;2022-12-11T00:15:43;97365.59;;;-1.09;82.19
40117;BME280;25829;50.228;18.936;2022-12-11T00:18:44;97363.00;;;-1.09;82.04
40117;BME280;25829;50.228;18.936;2022-12-11T00:21:44;97357.69;;;-1.08;82.24
40117;BME280;25829;50.228;18.936;2022-12-11T00:24:45;97346.84;;;-1.03;82.08
40117;BME280;25829;50.228;18.936;2022-12-11T00:27:46;97343.28;;;-1.02;82.01
40117;BME280;25829;50.228;18.936;2022-12-11T00:30:47;97357.03;;;-1.01;81.97
40117;BME280;25829;50.228;18.936;2022-12-11T00:33:48;97344.56;;;-0.98;82.11
40117;BME280;25829;50.228;18.936;2022-12-11T00:36:49;97347.66;;;-0.94;82.11
40117;BME280;25829;50.228;18.936;2022-12-11T00:39:50;97342.81;;;-0.97;81.53
40117;BME280;25829;50.228;18.936;2022-12-11T00:42:50;97347.50;;;-1.01;82.25
40117;BME280;25829;50.228;18.936;2022-12-11T00:45:51;97352.69;;;-1.01;81.88
40117;BME280;25829;50.228;18.936;2022-12-11T00:48:52;97343.47;;;-1.03;81.95
40117;BME280;25829;50.228;18.936;2022-12-11T00:51:54;97351.38;;;-0.97;82.29
40117;BME280;25829;50.228;18.936;2022-12-11T00:54:55;97346.69;;;-0.93;82.36
40117;BME280;25829;50.228;18.936;2022-12-11T00:57:56;97343.63;;;-0.89;81.64
40117;BME280;25829;50.228;18.936;2022-12-11T01:01:08;97348.13;;;-0.99;81.54
40117;BME280;25829;50.228;18.936;2022-12-11T01:04:09;97351.22;;;-1.03;81.51
40117;BME280;25829;50.228;18.936;2022-12-11T01:07:10;97361.88;;;-0.98;81.45
40117;BME280;25829;50.228;18.936;2022-12-11T01:14:31;97346.03;;;-1.20;81.86
40117;BME280;25829;50.228;18.936;2022-12-11T01:17:32;97347.63;;;-1.19;82.37
40117;BME280;25829;50.228;18.936;2022-12-11T01:20:33;97339.91;;;-1.11;82.48
40117;BME280;25829;50.228;18.936;2022-12-11T01:23:37;97342.13;;;-1.16;81.96
40117;BME280;25829;50.228;18.936;2022-12-11T01:26:38;97332.28;;;-1.12;82.13
40117;BME280;25829;50.228;18.936;2022-12-11T01:29:39;97336.31;;;-1.01;82.51
40117;BME280;25829;50.228;18.936;2022-12-11T01:32:40;97327.75;;;-1.02;81.69
40117;BME280;25829;50.228;18.936;2022-12-11T01:35:40;97325.81;;;-1.00;82.23
40117;BME280;25829;50.228;18.936;2022-12-11T01:38:43;97325.66;;;-0.98;82.19
40117;BME280;25829;50.228;18.936;2022-12-11T01:41:43;97321.13;;;-0.96;81.91
40117;BME280;25829;50.228;18.936;2022-12-11T01:52:24;97325.16;;;-1.10;81.93
40117;BME280;25829;50.228;18.936;2022-12-11T01:55:28;97322.25;;;-1.15;81.87
40117;BME280;25829;50.228;18.936;2022-12-11T01:58:32;97322.09;;;-1.14;81.91
40117;BME280;25829;50.228;18.936;2022-12-11T02:02:07;97321.63;;;-1.17;81.75
40117;BME280;25829;50.228;18.936;2022-12-11T02:05:09;97322.59;;;-1.18;81.96
40117;BME280;25829;50.228;18.936;2022-12-11T02:08:11;97328.25;;;-1.15;81.81
40117;BME280;25829;50.228;18.936;2022-12-11T02:11:19;97329.38;;;-1.17;81.74
40117;BME280;25829;50.228;18.936;2022-12-11T02:30:14;97326.31;;;-1.04;82.31
40117;BME280;25829;50.228;18.936;2022-12-11T02:33:16;97330.50;;;-1.12;82.27
40117;BME280;25829;50.228;18.936;2022-12-11T02:36:23;97331.63;;;-1.22;82.62
40117;BME280;25829;50.228;18.936;2022-12-11T02:39:26;97335.03;;;-1.22;82.69
40117;BME280;25829;50.228;18.936;2022-12-11T02:42:30;97326.00;;;-1.18;82.69
40117;BME280;25829;50.228;18.936;2022-12-11T02:45:33;97328.56;;;-1.10;82.74
40117;BME280;25829;50.228;18.936;2022-12-11T02:48:35;97310.63;;;-1.03;82.41
40117;BME280;25829;50.228;18.936;2022-12-11T02:51:39;97305.59;;;-1.13;81.55
40117;BME280;25829;50.228;18.936;2022-12-11T02:54:42;97294.63;;;-1.15;82.16
40117;BME280;25829;50.228;18.936;2022-12-11T02:57:48;97309.78;;;-1.12;82.01
40117;BME280;25829;50.228;18.936;2022-12-11T03:08:35;97286.38;;;-1.18;81.57
40117;BME280;25829;50.228;18.936;2022-12-11T03:11:36;97289.72;;;-1.26;81.72
40117;BME280;25829;50.228;18.936;2022-12-11T03:14:38;97298.47;;;-1.27;81.49
40117;BME280;25829;50.228;18.936;2022-12-11T03:17:46;97306.72;;;-1.23;82.00
40117;BME280;25829;50.228;18.936;2022-12-11T03:21:18;97307.88;;;-1.18;81.94
40117;BME280;25829;50.228;18.936;2022-12-11T03:24:32;97310.13;;;-1.15;81.53
40117;BME280;25829;50.228;18.936;2022-12-11T03:27:51;97307.69;;;-1.24;81.18
40117;BME280;25829;50.228;18.936;2022-12-11T03:30:57;97313.81;;;-1.25;81.78
40117;BME280;25829;50.228;18.936;2022-12-11T03:34:02;97309.00;;;-1.20;81.78
40117;BME280;25829;50.228;18.936;2022-12-11T03:37:09;97303.97;;;-1.14;81.19
40117;BME280;25829;50.228;18.936;2022-12-11T03:40:14;97299.94;;;-1.16;80.99
40117;BME280;25829;50.228;18.936;2022-12-11T03:47:31;97295.56;;;-1.16;81.64
40117;BME280;25829;50.228;18.936;2022-12-11T03:58:00;97290.06;;;-1.45;81.83
40117;BME280;25829;50.228;18.936;2022-12-11T04:01:01;97285.53;;;-1.51;81.84
40117;BME280;25829;50.228;18.936;2022-12-11T04:04:02;97288.28;;;-1.53;82.13
40117;BME280;25829;50.228;18.936;2022-12-11T04:07:03;97284.09;;;-1.46;82.24
40117;BME280;25829;50.228;18.936;2022-12-11T04:10:05;97277.94;;;-1.37;82.52
40117;BME280;25829;50.228;18.936;2022-12-11T04:13:07;97267.94;;;-1.32;81.96
40117;BME280;25829;50.228;18.936;2022-12-11T04:16:08;97274.22;;;-1.34;81.78
40117;BME280;25829;50.228;18.936;2022-12-11T04:19:09;97269.38;;;-1.37;81.46
40117;BME280;25829;50.228;18.936;2022-12-11T04:22:28;97274.72;;;-1.39;81.57
40117;BME280;25829;50.228;18.936;2022-12-11T04:25:38;97275.16;;;-1.43;81.63
40117;BME280;25829;50.228;18.936;2022-12-11T04:28:41;97270.97;;;-1.44;82.07
40117;BME280;25829;50.228;18.936;2022-12-11T04:31:42;97274.38;;;-1.44;81.88
40117;BME280;25829;50.228;18.936;2022-12-11T04:34:43;97273.56;;;-1.44;81.91
40117;BME280;25829;50.228;18.936;2022-12-11T04:37:44;97269.69;;;-1.40;81.94
40117;BME280;25829;50.228;18.936;2022-12-11T04:40:44;97264.50;;;-1.40;81.87
40117;BME280;25829;50.228;18.936;2022-12-11T04:47:17;97259.34;;;-1.48;81.91
40117;BME280;25829;50.228;18.936;2022-12-11T04:50:43;97259.97;;;-1.46;81.73
40117;BME280;25829;50.228;18.936;2022-12-11T04:57:10;97262.91;;;-1.49;81.77
40117;BME280;25829;50.228;18.936;2022-12-11T05:00:11;97258.50;;;-1.57;81.54
40117;BME280;25829;50.228;18.936;2022-12-11T05:03:13;97262.56;;;-1.63;81.53
40117;BME280;25829;50.228;18.936;2022-12-11T05:06:14;97259.31;;;-1.65;82.02
40117;BME280;25829;50.228;18.936;2022-12-11T05:09:16;97262.06;;;-1.58;82.22
40117;BME280;25829;50.228;18.936;2022-12-11T05:12:16;97259.81;;;-1.61;82.05
40117;BME280;25829;50.228;18.936;2022-12-11T05:15:17;97259.97;;;-1.63;82.07
40117;BME280;25829;50.228;18.936;2022-12-11T05:18:18;97260.28;;;-1.66;82.31
40117;BME280;25829;50.228;18.936;2022-12-11T05:21:19;97256.91;;;-1.58;82.23
40117;BME280;25829;50.228;18.936;2022-12-11T05:24:19;97256.75;;;-1.48;82.36
40117;BME280;25829;50.228;18.936;2022-12-11T05:27:20;97252.88;;;-1.44;82.13
40117;BME280;25829;50.228;18.936;2022-12-11T05:30:21;97245.91;;;-1.44;81.79
40117;BME280;25829;50.228;18.936;2022-12-11T05:33:22;97245.59;;;-1.41;81.42
40117;BME280;25829;50.228;18.936;2022-12-11T05:36:28;97240.44;;;-1.41;81.30
40117;BME280;25829;50.228;18.936;2022-12-11T05:39:29;97241.41;;;-1.42;81.06
40117;BME280;25829;50.228;18.936;2022-12-11T05:42:30;97238.97;;;-1.43;81.69
40117;BME280;25829;50.228;18.936;2022-12-11T05:45:30;97243.81;;;-1.40;81.28
40117;BME280;25829;50.228;18.936;2022-12-11T05:48:31;97245.59;;;-1.41;81.21
40117;BME280;25829;50.228;18.936;2022-12-11T05:51:32;97244.13;;;-1.43;81.18
40117;BME280;25829;50.228;18.936;2022-12-11T05:54:35;97244.78;;;-1.41;81.36
40117;BME280;25829;50.228;18.936;2022-12-11T05:57:36;97244.63;;;-1.40;80.77
40117;BME280;25829;50.228;18.936;2022-12-11T06:00:40;97248.50;;;-1.44;80.26
40117;BME280;25829;50.228;18.936;2022-12-11T06:03:41;97254.00;;;-1.47;80.90
40117;BME280;25829;50.228;18.936;2022-12-11T06:06:42;97252.56;;;-1.49;80.63
40117;BME280;25829;50.228;18.936;2022-12-11T06:09:45;97254.16;;;-1.48;80.75
40117;BME280;25829;50.228;18.936;2022-12-11T06:12:46;97248.34;;;-1.50;81.03
40117;BME280;25829;50.228;18.936;2022-12-11T06:15:47;97253.03;;;-1.46;80.79
40117;BME280;25829;50.228;18.936;2022-12-11T06:18:48;97258.69;;;-1.42;80.63
40117;BME280;25829;50.228;18.936;2022-12-11T06:21:48;97256.91;;;-1.42;80.57
40117;BME280;25829;50.228;18.936;2022-12-11T06:24:49;97257.09;;;-1.35;80.51
40117;BME280;25829;50.228;18.936;2022-12-11T06:27:50;97266.78;;;-1.29;80.26
40117;BME280;25829;50.228;18.936;2022-12-11T06:30:51;97265.66;;;-1.26;80.27
40117;BME280;25829;50.228;18.936;2022-12-11T06:33:52;97264.53;;;-1.24;80.04
40117;BME280;25829;50.228;18.936;2022-12-11T06:36:53;97268.41;;;-1.20;80.12
40117;BME280;25829;50.228;18.936;2022-12-11T06:39:54;97277.75;;;-1.19;80.16
40117;BME280;25829;50.228;18.936;2022-12-11T06:42:55;97265.19;;;-1.22;79.84
40117;BME280;25829;50.228;18.936;2022-12-11T06:45:56;97271.63;;;-1.26;79.86
40117;BME280;25829;50.228;18.936;2022-12-11T06:48:56;97276.34;;;-1.21;79.94
40117;BME280;25829;50.228;18.936;2022-12-11T06:51:57;97278.44;;;-1.17;80.11
40117;BME280;25829;50.228;18.936;2022-12-11T06:54:58;97279.09;;;-1.15;80.06
40117;BME280;25829;50.228;18.936;2022-12-11T06:57:58;97279.41;;;-1.18;79.44
40117;BME280;25829;50.228;18.936;2022-12-11T07:00:59;97278.09;;;-1.30;78.61
40117;BME280;25829;50.228;18.936;2022-12-11T07:04:01;97267.75;;;-1.38;78.65
40117;BME280;25829;50.228;18.936;2022-12-11T07:07:02;97280.84;;;-1.40;78.73
40117;BME280;25829;50.228;18.936;2022-12-11T07:10:03;97280.84;;;-1.40;79.08
40117;BME280;25829;50.228;18.936;2022-12-11T07:13:04;97275.66;;;-1.40;79.05
40117;BME280;25829;50.228;18.936;2022-12-11T07:16:05;97283.75;;;-1.43;78.83
40117;BME280;25829;50.228;18.936;2022-12-11T07:19:10;97282.00;;;-1.42;79.03
40117;BME280;25829;50.228;18.936;2022-12-11T07:22:11;97278.56;;;-1.43;78.51
40117;BME280;25829;50.228;18.936;2022-12-11T07:25:11;97273.06;;;-1.48;78.94
40117;BME280;25829;50.228;18.936;2022-12-11T07:28:12;97278.25;;;-1.48;78.82
40117;BME280;25829;50.228;18.936;2022-12-11T07:31:16;97278.75;;;-1.44;79.02
40117;BME280;25829;50.228;18.936;2022-12-11T07:34:18;97289.41;;;-1.39;78.77
40117;BME280;25829;50.228;18.936;2022-12-11T07:37:18;97286.00;;;-1.40;78.73
40117;BME280;25829;50.228;18.936;2022-12-11T07:40:19;97288.28;;;-1.37;78.76
40117;BME280;25829;50.228;18.936;2022-12-11T07:43:20;97293.13;;;-1.34;78.70
40117;BME280;25829;50.228;18.936;2022-12-11T07:46:24;97307.84;;;-1.26;78.94
40117;BME280;25829;50.228;18.936;2022-12-11T07:49:26;97305.91;;;-1.24;78.71
40117;BME280;25829;50.228;18.936;2022-12-11T07:52:26;97307.22;;;-1.20;78.81
40117;BME280;25829;50.228;18.936;2022-12-11T07:55:27;97301.06;;;-1.19;78.53
40117;BME280;25829;50.228;18.936;2022-12-11T07:58:28;97303.81;;;-1.20;77.76
40117;BME280;25829;50.228;18.936;2022-12-11T08:01:30;97299.75;;;-1.23;78.28
40117;BME280;25829;50.228;18.936;2022-12-11T08:04:41;97298.47;;;-1.19;78.11
40117;BME280;25829;50.228;18.936;2022-12-11T08:07:42;97294.91;;;-1.26;78.13
40117;BME280;25829;50.228;18.936;2022-12-11T08:10:45;97299.94;;;-1.24;78.08
40117;BME280;25829;50.228;18.936;2022-12-11T08:13:46;97292.50;;;-1.27;77.98
40117;BME280;25829;50.228;18.936;2022-12-11T08:16:47;97296.53;;;-1.25;77.86
40117;BME280;25829;50.228;18.936;2022-12-11T08:19:48;97300.75;;;-1.32;77.46
40117;BME280;25829;50.228;18.936;2022-12-11T08:22:49;97287.66;;;-1.31;77.99
40117;BME280;25829;50.228;18.936;2022-12-11T08:25:56;97293.78;;;-1.32;78.30
40117;BME280;25829;50.228;18.936;2022-12-11T08:28:57;97287.31;;;-1.36;78.20
40117;BME280;25829;50.228;18.936;2022-12-11T08:32:01;97297.16;;;-1.39;78.10
40117;BME280;25829;50.228;18.936;2022-12-11T08:35:11;97292.81;;;-1.39;77.89
40117;BME280;25829;50.228;18.936;2022-12-11T08:38:11;97294.56;;;-1.39;78.24
40117;BME280;25829;50.228;18.936;2022-12-11T08:41:26;97295.22;;;-1.29;78.19
40117;BME280;25829;50.228;18.936;2022-12-11T08:44:30;97303.34;;;-1.24;78.32
40117;BME280;25829;50.228;18.936;2022-12-11T08:47:31;97319.66;;;-1.23;77.97
40117;BME280;25829;50.228;18.936;2022-12-11T08:50:35;97313.03;;;-1.26;77.72
40117;BME280;25829;50.228;18.936;2022-12-11T08:53:36;97312.22;;;-1.26;77.79
40117;BME280;25829;50.228;18.936;2022-12-11T08:56:38;97299.59;;;-1.29;77.14
40117;BME280;25829;50.228;18.936;2022-12-11T08:59:42;97311.91;;;-1.32;76.78
40117;BME280;25829;50.228;18.936;2022-12-11T09:02:49;97302.19;;;-1.38;77.24
40117;BME280;25829;50.228;18.936;2022-12-11T09:05:50;97304.47;;;-1.35;77.26
40117;BME280;25829;50.228;18.936;2022-12-11T09:08:52;97302.34;;;-1.39;77.11
40117;BME280;25829;50.228;18.936;2022-12-11T09:11:56;97293.94;;;-1.41;77.10
40117;BME280;25829;50.228;18.936;2022-12-11T09:14:59;97288.44;;;-1.38;77.68
40117;BME280;25829;50.228;18.936;2022-12-11T09:18:09;97289.25;;;-1.38;76.84
40117;BME280;25829;50.228;18.936;2022-12-11T09:21:12;97294.09;;;-1.43;76.92
40117;BME280;25829;50.228;18.936;2022-12-11T09:24:19;97289.41;;;-1.39;77.38
40117;BME280;25829;50.228;18.936;2022-12-11T09:27:26;97289.75;;;-1.42;77.46
40117;BME280;25829;50.228;18.936;2022-12-11T09:30:27;97288.28;;;-1.37;77.53
40117;BME280;25829;50.228;18.936;2022-12-11T09:33:28;97297.16;;;-1.39;77.32
40117;BME280;25829;50.228;18.936;2022-12-11T09:36:29;97290.69;;;-1.43;76.35
40117;BME280;25829;50.228;18.936;2022-12-11T09:39:30;97293.13;;;-1.42;76.57
40117;BME280;25829;50.228;18.936;2022-12-11T09:42:52;97296.84;;;-1.44;76.25
40117;BME280;25829;50.228;18.936;2022-12-11T09:46:03;97297.34;;;-1.41;76.17
40117;BME280;25829;50.228;18.936;2022-12-11T09:56:01;97284.72;;;-1.27;75.68
40117;BME280;25829;50.228;18.936;2022-12-11T10:09:48;97281.19;;;-1.18;75.36
40117;BME280;25829;50.228;18.936;2022-12-11T10:17:04;97273.25;;;-1.17;75.02
40117;BME280;25829;50.228;18.936;2022-12-11T10:28:18;97276.63;;;-1.00;75.58
40117;BME280;25829;50.228;18.936;2022-12-11T10:48:09;97260.47;;;-1.10;74.58
40117;BME280;25829;50.228;18.936;2022-12-11T10:55:52;97261.94;;;-1.32;73.82
40117;BME280;25829;50.228;18.936;2022-12-11T10:58:55;97248.00;;;-1.39;74.52
40117;BME280;25829;50.228;18.936;2022-12-11T11:22:14;97238.00;;;-1.34;74.13
40117;BME280;25829;50.228;18.936;2022-12-11T11:25:21;97233.31;;;-1.39;73.28
40117;BME280;25829;50.228;18.936;2022-12-11T11:33:17;97232.81;;;-1.59;73.90
40117;BME280;25829;50.228;18.936;2022-12-11T11:36:22;97232.34;;;-1.62;74.08
40117;BME280;25829;50.228;18.936;2022-12-11T11:54:21;97230.25;;;-1.42;73.93
40117;BME280;25829;50.228;18.936;2022-12-11T12:01:28;97227.31;;;-1.64;73.63
40117;BME280;25829;50.228;18.936;2022-12-11T12:04:45;97220.22;;;-1.62;73.86
40117;BME280;25829;50.228;18.936;2022-12-11T12:19:12;97218.78;;;-1.56;73.61
40117;BME280;25829;50.228;18.936;2022-12-11T12:53:35;97228.28;;;-1.57;74.72
40117;BME280;25829;50.228;18.936;2022-12-11T12:56:40;97225.88;;;-1.50;74.72
40117;BME280;25829;50.228;18.936;2022-12-11T13:00:05;97235.75;;;-1.45;74.52
40117;BME280;25829;50.228;18.936;2022-12-11T13:03:21;97244.00;;;-1.42;74.97
40117;BME280;25829;50.228;18.936;2022-12-11T13:17:37;97243.31;;;-1.44;74.46
40117;BME280;25829;50.228;18.936;2022-12-11T13:20:46;97259.50;;;-1.42;74.30
40117;BME280;25829;50.228;18.936;2022-12-11T13:23:50;97254.00;;;-1.47;74.17
40117;BME280;25829;50.228;18.936;2022-12-11T13:26:54;97250.94;;;-1.59;73.78
40117;BME280;25829;50.228;18.936;2022-12-11T13:53:12;97279.59;;;-2.03;74.55
40117;BME280;25829;50.228;18.936;2022-12-11T14:01:52;97279.63;;;-1.94;75.15
40117;BME280;25829;50.228;18.936;2022-12-11T14:17:36;97281.84;;;-2.08;74.63
40117;BME280;25829;50.228;18.936;2022-12-11T14:20:37;97287.50;;;-2.04;74.99
40117;BME280;25829;50.228;18.936;2022-12-11T14:23:38;97286.88;;;-1.98;75.26
40117;BME280;25829;50.228;18.936;2022-12-11T14:26:39;97297.84;;;-1.96;75.07
40117;BME280;25829;50.228;18.936;2022-12-11T14:29:49;97298.84;;;-1.97;74.81
40117;BME280;25829;50.228;18.936;2022-12-11T14:32:55;97295.25;;;-2.04;74.98
40117;BME280;25829;50.228;18.936;2022-12-11T14:36:06;97299.44;;;-2.11;74.93
40117;BME280;25829;50.228;18.936;2022-12-11T14:39:13;97300.84;;;-2.17;75.15
40117;BME280;25829;50.228;18.936;2022-12-11T14:42:19;97291.63;;;-2.19;75.49
40117;BME280;25829;50.228;18.936;2022-12-11T14:45:37;97288.09;;;-2.18;74.82
40117;BME280;25829;50.228;18.936;2022-12-11T14:48:46;97284.84;;;-2.20;74.85
40117;BME280;25829;50.228;18.936;2022-12-11T14:51:49;97287.25;;;-2.27;74.97
40117;BME280;25829;50.228;18.936;2022-12-11T14:55:07;97277.41;;;-2.23;75.41
40117;BME280;25829;50.228;18.936;2022-12-11T15:01:28;97284.06;;;-2.13;75.38
40117;BME280;25829;50.228;18.936;2022-12-11T15:04:31;97288.28;;;-2.12;75.31
40117;BME280;25829;50.228;18.936;2022-12-11T15:07:32;97291.50;;;-2.10;75.23
40117;BME280;25829;50.228;18.936;2022-12-11T15:10:35;97291.50;;;-2.10;75.28
40117;BME280;25829;50.228;18.936;2022-12-11T15:13:51;97287.00;;;-2.08;75.10
40117;BME280;25829;50.228;18.936;2022-12-11T15:16:54;97285.38;;;-2.09;74.97
40117;BME280;25829;50.228;18.936;2022-12-11T15:20:27;97286.19;;;-2.08;74.93
40117;BME280;25829;50.228;18.936;2022-12-11T15:23:29;97292.47;;;-2.11;74.96
40117;BME280;25829;50.228;18.936;2022-12-11T15:27:23;97298.63;;;-2.12;74.78
40117;BME280;25829;50.228;18.936;2022-12-11T15:33:21;97300.19;;;-2.19;75.01
40117;BME280;25829;50.228;18.936;2022-12-11T15:36:33;97299.88;;;-2.16;75.00
40117;BME280;25829;50.228;18.936;2022-12-11T15:39:35;97297.28;;;-2.16;75.11
40117;BME280;25829;50.228;18.936;2022-12-11T15:42:38;97299.75;;;-2.14;74.81
40117;BME280;25829;50.228;18.936;2022-12-11T15:45:40;97306.38;;;-2.12;74.96
40117;BME280;25829;50.228;18.936;2022-12-11T15:48:42;97308.63;;;-2.09;74.76
40117;BME280;25829;50.228;18.936;2022-12-11T15:51:43;97304.13;;;-2.07;75.23
40117;BME280;25829;50.228;18.936;2022-12-11T15:55:31;97301.22;;;-2.12;75.02
40117;BME280;25829;50.228;18.936;2022-12-11T16:01:59;97323.19;;;-2.08;75.17
40117;BME280;25829;50.228;18.936;2022-12-11T16:05:09;97316.53;;;-2.10;74.55
40117;BME280;25829;50.228;18.936;2022-12-11T16:08:21;97313.00;;;-2.09;74.94
40117;BME280;25829;50.228;18.936;2022-12-11T16:11:22;97310.06;;;-2.14;74.65
40117;BME280;25829;50.228;18.936;2022-12-11T16:14:23;97317.97;;;-2.16;74.73
40117;BME280;25829;50.228;18.936;2022-12-11T16:17:23;97326.22;;;-2.12;74.82
40117;BME280;25829;50.228;18.936;2022-12-11T16:20:24;97312.78;;;-2.16;74.84
40117;BME280;25829;50.228;18.936;2022-12-11T16:23:25;97318.94;;;-2.17;74.46
40117;BME280;25829;50.228;18.936;2022-12-11T16:26:31;97320.03;;;-2.19;74.34
40117;BME280;25829;50.228;18.936;2022-12-11T16:29:35;97324.41;;;-2.20;74.32
40117;BME280;25829;50.228;18.936;2022-12-11T16:32:35;97324.38;;;-2.28;74.23
40117;BME280;25829;50.228;18.936;2022-12-11T16:35:36;97329.03;;;-2.32;74.36
40117;BME280;25829;50.228;18.936;2022-12-11T16:38:37;97330.97;;;-2.34;74.21
40117;BME280;25829;50.228;18.936;2022-12-11T16:41:41;97333.72;;;-2.35;74.41
40117;BME280;25829;50.228;18.936;2022-12-11T16:44:42;97336.91;;;-2.41;74.31
40117;BME280;25829;50.228;18.936;2022-12-11T16:47:55;97331.56;;;-2.40;74.34
40117;BME280;25829;50.228;18.936;2022-12-11T16:50:56;97338.88;;;-2.35;74.58
40117;BME280;25829;50.228;18.936;2022-12-11T16:53:58;97342.25;;;-2.35;74.67
40117;BME280;25829;50.228;18.936;2022-12-11T16:57:08;97338.38;;;-2.39;74.24
40117;BME280;25829;50.228;18.936;2022-12-11T17:00:24;97326.88;;;-2.44;74.51
40117;BME280;25829;50.228;18.936;2022-12-11T17:03:25;97328.16;;;-2.48;74.65
40117;BME280;25829;50.228;18.936;2022-12-11T17:06:28;97338.00;;;-2.44;74.72
40117;BME280;25829;50.228;18.936;2022-12-11T17:09:30;97340.59;;;-2.44;74.50
40117;BME280;25829;50.228;18.936;2022-12-11T17:12:30;97335.88;;;-2.48;74.77
40117;BME280;25829;50.228;18.936;2022-12-11T17:15:39;97346.88;;;-2.46;74.72
40117;BME280;25829;50.228;18.936;2022-12-11T17:18:46;97338.69;;;-2.42;74.85
40117;BME280;25829;50.228;18.936;2022-12-11T17:21:59;97339.97;;;-2.38;75.03
40117;BME280;25829;50.228;18.936;2022-12-11T17:25:00;97335.78;;;-2.39;74.61
40117;BME280;25829;50.228;18.936;2022-12-11T17:28:18;97336.72;;;-2.40;74.59
40117;BME280;25829;50.228;18.936;2022-12-11T17:31:19;97338.00;;;-2.44;74.81
40117;BME280;25829;50.228;18.936;2022-12-11T17:39:20;97333.47;;;-2.50;74.44
40117;BME280;25829;50.228;18.936;2022-12-11T17:42:26;97336.19;;;-2.52;74.78
40117;BME280;25829;50.228;18.936;2022-12-11T17:45:27;97341.34;;;-2.52;74.90
40117;BME280;25829;50.228;18.936;2022-12-11T17:48:28;97345.03;;;-2.54;74.85
40117;BME280;25829;50.228;18.936;2022-12-11T17:51:32;97343.44;;;-2.55;74.70
40117;BME280;25829;50.228;18.936;2022-12-11T17:54:32;97350.38;;;-2.56;74.98
40117;BME280;25829;50.228;18.936;2022-12-11T17:57:40;97353.94;;;-2.57;74.65
40117;BME280;25829;50.228;18.936;2022-12-11T18:04:37;97356.34;;;-2.55;75.01
40117;BME280;25829;50.228;18.936;2022-12-11T18:07:46;97355.06;;;-2.51;75.21
40117;BME280;25829;50.228;18.936;2022-12-11T18:10:51;97350.22;;;-2.54;74.73
40117;BME280;25829;50.228;18.936;2022-12-11T18:13:55;97342.31;;;-2.53;74.74
40117;BME280;25829;50.228;18.936;2022-12-11T18:17:02;97340.19;;;-2.57;74.28
40117;BME280;25829;50.228;18.936;2022-12-11T18:20:03;97346.31;;;-2.58;74.86
40117;BME280;25829;50.228;18.936;2022-12-11T18:23:04;97335.84;;;-2.57;74.59
40117;BME280;25829;50.228;18.936;2022-12-11T18:26:05;97340.69;;;-2.54;74.67
40117;BME280;25829;50.228;18.936;2022-12-11T18:29:09;97335.38;;;-2.52;74.57
40117;BME280;25829;50.228;18.936;2022-12-11T18:32:11;97338.28;;;-2.55;74.17
40117;BME280;25829;50.228;18.936;2022-12-11T18:35:11;97340.19;;;-2.57;74.24
40117;BME280;25829;50.228;18.936;2022-12-11T18:38:16;97343.91;;;-2.60;74.17
40117;BME280;25829;50.228;18.936;2022-12-11T18:41:18;97341.63;;;-2.63;74.46
40117;BME280;25829;50.228;18.936;2022-12-11T18:44:18;97337.94;;;-2.60;74.64
40117;BME280;25829;50.228;18.936;2022-12-11T18:47:22;97346.31;;;-2.58;74.30
40117;BME280;25829;50.228;18.936;2022-12-11T18:50:22;97340.34;;;-2.59;74.19
40117;BME280;25829;50.228;18.936;2022-12-11T18:53:28;97337.94;;;-2.60;74.21
40117;BME280;25829;50.228;18.936;2022-12-11T18:56:32;97348.56;;;-2.63;74.06
40117;BME280;25829;50.228;18.936;2022-12-11T18:59:56;97349.28;;;-2.71;73.83
40117;BME280;25829;50.228;18.936;2022-12-11T19:03:01;97341.72;;;-2.72;74.08
40117;BME280;25829;50.228;18.936;2022-12-11T19:06:10;97354.97;;;-2.67;74.18
40117;BME280;25829;50.228;18.936;2022-12-11T19:09:11;97345.31;;;-2.65;74.18
40117;BME280;25829;50.228;18.936;2022-12-11T19:12:12;97347.75;;;-2.64;73.95
40117;BME280;25829;50.228;18.936;2022-12-11T19:15:21;97349.00;;;-2.68;73.91
40117;BME280;25829;50.228;18.936;2022-12-11T19:18:21;97348.34;;;-2.70;74.20
40117;BME280;25829;50.228;18.936;2022-12-11T19:21:26;97346.72;;;-2.71;74.25
40117;BME280;25829;50.228;18.936;2022-12-11T19:24:26;97343.81;;;-2.68;74.30
40117;BME280;25829;50.228;18.936;2022-12-11T19:27:27;97348.84;;;-2.66;74.02
40117;BME280;25829;50.228;18.936;2022-12-11T19:30:28;97350.25;;;-2.72;73.82
40117;BME280;25829;50.228;18.936;2022-12-11T19:33:29;97349.44;;;-2.72;74.25
40117;BME280;25829;50.228;18.936;2022-12-11T19:36:30;97342.50;;;-2.72;74.42
40117;BME280;25829;50.228;18.936;2022-12-11T19:39:31;97351.75;;;-2.69;74.23
40117;BME280;25829;50.228;18.936;2022-12-11T19:42:32;97342.38;;;-2.70;73.83
40117;BME280;25829;50.228;18.936;2022-12-11T19:45:35;97344.97;;;-2.70;73.92
40117;BME280;25829;50.228;18.936;2022-12-11T19:48:37;97347.53;;;-2.70;73.87
40117;BME280;25829;50.228;18.936;2022-12-11T19:51:41;97343.53;;;-2.65;74.01
40117;BME280;25829;50.228;18.936;2022-12-11T19:54:42;97347.59;;;-2.62;73.90
40117;BME280;25829;50.228;18.936;2022-12-11T19:57:42;97334.69;;;-2.62;73.78
40117;BME280;25829;50.228;18.936;2022-12-11T20:00:45;97346.47;;;-2.60;73.57
40117;BME280;25829;50.228;18.936;2022-12-11T20:03:46;97350.47;;;-2.65;73.77
40117;BME280;25829;50.228;18.936;2022-12-11T20:06:47;97349.50;;;-2.64;74.19
40117;BME280;25829;50.228;18.936;2022-12-11T20:09:48;97343.09;;;-2.60;73.99
40117;BME280;25829;50.228;18.936;2022-12-11T20:12:50;97347.41;;;-2.61;73.81
40117;BME280;25829;50.228;18.936;2022-12-11T20:15:55;97349.19;;;-2.61;74.16
40117;BME280;25829;50.228;18.936;2022-12-11T20:18:56;97350.69;;;-2.59;74.24
40117;BME280;25829;50.228;18.936;2022-12-11T20:25:22;97350.38;;;-2.56;74.07
40117;BME280;25829;50.228;18.936;2022-12-11T20:28:23;97357.44;;;-2.58;74.05